Map

Track Data

SID SEASON NUMBER BASIN SUBBASIN NAME ISO_TIME NATURE LAT LON WMO_WIND WMO_PRES WMO_AGENCY TRACK_TYPE DIST2LAND LANDFALL IFLAG USA_AGENCY USA_ATCF_ID USA_LAT USA_LON USA_RECORD USA_STATUS USA_WIND USA_PRES USA_SSHS USA_R34_NE USA_R34_SE USA_R34_SW USA_R34_NW USA_R50_NE USA_R50_SE USA_R50_SW USA_R50_NW USA_R64_NE USA_R64_SE USA_R64_SW USA_R64_NW USA_POCI USA_ROCI USA_RMW USA_EYE TOKYO_LAT TOKYO_LON TOKYO_GRADE TOKYO_WIND TOKYO_PRES TOKYO_R50_DIR TOKYO_R50_LONG TOKYO_R50_SHORT TOKYO_R30_DIR TOKYO_R30_LONG TOKYO_R30_SHORT TOKYO_LAND CMA_LAT CMA_LON CMA_CAT CMA_WIND CMA_PRES HKO_LAT HKO_LON HKO_CAT HKO_WIND HKO_PRES NEWDELHI_LAT NEWDELHI_LON NEWDELHI_GRADE NEWDELHI_WIND NEWDELHI_PRES NEWDELHI_CI NEWDELHI_DP NEWDELHI_POCI REUNION_LAT REUNION_LON REUNION_TYPE REUNION_WIND REUNION_PRES REUNION_TNUM REUNION_CI REUNION_RMW REUNION_R34_NE REUNION_R34_SE REUNION_R34_SW REUNION_R34_NW REUNION_R50_NE REUNION_R50_SE REUNION_R50_SW REUNION_R50_NW REUNION_R64_NE REUNION_R64_SE REUNION_R64_SW REUNION_R64_NW BOM_LAT BOM_LON BOM_TYPE BOM_WIND BOM_PRES BOM_TNUM BOM_CI BOM_RMW BOM_R34_NE BOM_R34_SE BOM_R34_SW BOM_R34_NW BOM_R50_NE BOM_R50_SE BOM_R50_SW BOM_R50_NW BOM_R64_NE BOM_R64_SE BOM_R64_SW BOM_R64_NW BOM_ROCI BOM_POCI BOM_EYE BOM_POS_METHOD BOM_PRES_METHOD NADI_LAT NADI_LON NADI_CAT NADI_WIND NADI_PRES WELLINGTON_LAT WELLINGTON_LON WELLINGTON_WIND WELLINGTON_PRES DS824_LAT DS824_LON DS824_STAGE DS824_WIND DS824_PRES TD9636_LAT TD9636_LON TD9636_STAGE TD9636_WIND TD9636_PRES TD9635_LAT TD9635_LON TD9635_WIND TD9635_PRES TD9635_ROCI NEUMANN_LAT NEUMANN_LON NEUMANN_CLASS NEUMANN_WIND NEUMANN_PRES MLC_LAT MLC_LON MLC_CLASS MLC_WIND MLC_PRES USA_GUST BOM_GUST BOM_GUST_PER REUNION_GUST REUNION_GUST_PER USA_SEAHGT USA_SEARAD_NE USA_SEARAD_SE USA_SEARAD_SW USA_SEARAD_NW STORM_SPEED STORM_DIR
1990129N05138 1990 28 WP MM MARIAN 1990-05-09 00:00:00 NR 4.90000 138.000 main 680 676 O_____________ jtwc_wp WP031990 4.90000 138.000 15 -1 3 265
1990129N05138 1990 28 WP MM MARIAN 1990-05-09 03:00:00 NR 4.88750 137.860 main 676 669 P_____________ WP031990 4.88750 137.860 15 -1 3 270
1990129N05138 1990 28 WP MM MARIAN 1990-05-09 06:00:00 NR 4.90000 137.700 main 669 662 O_____________ jtwc_wp WP031990 4.90000 137.700 15 -1 4 280
1990129N05138 1990 28 WP MM MARIAN 1990-05-09 09:00:00 NR 4.95000 137.508 main 672 662 P_____________ WP031990 4.95000 137.508 15 -1 4 284
1990129N05138 1990 28 WP MM MARIAN 1990-05-09 12:00:00 NR 5.00000 137.300 main 666 660 O_____________ jtwc_wp WP031990 5.00000 137.300 15 -1 4 278
1990129N05138 1990 28 WP MM MARIAN 1990-05-09 15:00:00 NR 5.00749 137.100 main 660 654 P_____________ WP031990 5.00749 137.100 15 -1 4 270
1990129N05138 1990 28 WP MM MARIAN 1990-05-09 18:00:00 NR 5.00000 136.900 main 654 650 O_____________ jtwc_wp WP031990 5.00000 136.900 15 -1 4 268
1990129N05138 1990 28 WP MM MARIAN 1990-05-09 21:00:00 NR 4.99249 136.707 main 650 646 P_____________ WP031990 4.99249 136.707 15 -1 4 270
1990129N05138 1990 28 WP MM MARIAN 1990-05-10 00:00:00 NR 5.00000 136.500 main 646 643 O_____________ jtwc_wp WP031990 5.00000 136.500 15 -1 5 276
1990129N05138 1990 28 WP MM MARIAN 1990-05-10 03:00:00 NR 5.04250 136.258 main 643 642 P_____________ WP031990 5.04250 136.258 15 -1 5 281
1990129N05138 1990 28 WP MM MARIAN 1990-05-10 06:00:00 NR 5.10000 136.000 main 651 650 O_____________ jtwc_wp WP031990 5.10000 136.000 15 -1 5 283
1990129N05138 1990 28 WP MM MARIAN 1990-05-10 09:00:00 NR 5.15749 135.750 main 661 661 P_____________ WP031990 5.15749 135.750 15 -1 5 281
1990129N05138 1990 28 WP MM MARIAN 1990-05-10 12:00:00 NR 5.20000 135.500 main 661 661 O_____________ jtwc_wp WP031990 5.20000 135.500 15 -1 5 275
1990129N05138 1990 28 WP MM MARIAN 1990-05-10 15:00:00 NR 5.19999 135.250 main 661 662 P_____________ WP031990 5.19999 135.250 15 -1 5 270
1990129N05138 1990 28 WP MM MARIAN 1990-05-10 18:00:00 NR 5.20000 135.000 main 663 658 O_____________ jtwc_wp WP031990 5.20000 135.000 15 -1 5 275
1990129N05138 1990 28 WP MM MARIAN 1990-05-10 21:00:00 NR 5.24248 134.758 main 658 655 P_____________ WP031990 5.24248 134.758 15 -1 5 281
1990129N05138 1990 28 WP MM MARIAN 1990-05-11 00:00:00 NR 5.30000 134.500 main 660 652 O_____________ jtwc_wp WP031990 5.30000 134.500 15 -1 6 281
1990129N05138 1990 28 WP MM MARIAN 1990-05-11 03:00:00 NR 5.35000 134.208 main 663 652 P_____________ WP031990 5.35000 134.207 15 -1 6 280
1990129N05138 1990 28 WP MM MARIAN 1990-05-11 06:00:00 NR 5.40000 133.900 main 657 633 O_____________ jtwc_wp WP031990 5.40000 133.900 15 -1 6 279
1990129N05138 1990 28 WP MM MARIAN 1990-05-11 09:00:00 NR 5.44999 133.600 main 633 611 P_____________ WP031990 5.44999 133.600 15 -1 6 280
1990129N05138 1990 28 WP MM MARIAN 1990-05-11 12:00:00 NR 5.50000 133.300 main 611 583 O_____________ jtwc_wp WP031990 5.50000 133.300 15 -1 6 279
1990129N05138 1990 28 WP MM MARIAN 1990-05-11 15:00:00 NR 5.54246 133.015 main 583 563 P_____________ WP031990 5.54246 133.015 15 -1 6 280
1990129N05138 1990 28 WP MM MARIAN 1990-05-11 18:00:00 NR 5.60000 132.700 main 563 536 O_____________ jtwc_wp WP031990 5.60000 132.700 15 -1 7 282
1990129N05138 1990 28 WP MM MARIAN 1990-05-11 21:00:00 NR 5.69248 132.322 main 536 512 P_____________ WP031990 5.69248 132.322 17 -1 8 284
1990129N05138 1990 28 WP MM MARIAN 1990-05-12 00:00:00 NR 5.80000 131.900 main 512 491 O_____________ jtwc_wp WP031990 5.80000 131.900 20 -1 9 285
1990129N05138 1990 28 WP MM MARIAN 1990-05-12 03:00:00 NR 5.91494 131.473 main 491 467 P_____________ WP031990 5.91494 131.473 20 -1 9 283
1990129N05138 1990 28 WP MM MARIAN 1990-05-12 06:00:00 NR 6.00000 131.000 main 467 440 O_____________ jtwc_wp WP031990 6.00000 131.000 20 -1 10 276
1990129N05138 1990 28 WP MM MARIAN 1990-05-12 09:00:00 NR 6.01496 130.472 main 440 392 P_____________ WP031990 6.01496 130.472 20 -1 11 270
1990129N05138 1990 28 WP MM MARIAN 1990-05-12 12:00:00 NR 6.00000 129.900 main 392 329 O_____________ jtwc_wp WP031990 6.00000 129.900 20 -1 12 269
1990129N05138 1990 28 WP MM MARIAN 1990-05-12 15:00:00 NR 5.99993 129.315 main 329 267 P_____________ WP031990 5.99993 129.315 20 -1 12 270
1990129N05138 1990 28 WP MM MARIAN 1990-05-12 18:00:00 NR 6.00000 128.700 main 267 208 O_____________ jtwc_wp WP031990 6.00000 128.700 20 -1 12 270
1990129N05138 1990 28 WP MM MARIAN 1990-05-12 21:00:00 NR 5.99992 128.065 main 208 136 P_____________ WP031990 5.99992 128.065 20 -1 13 270
1990129N05138 1990 28 WP MM MARIAN 1990-05-13 00:00:00 NR 6.00000 127.400 main 136 74 O_____________ jtwc_wp WP031990 6.00000 127.400 20 -1 13 270
1990129N05138 1990 28 WP MM MARIAN 1990-05-13 03:00:00 NR 5.99991 126.715 main 64 33 P_____________ WP031990 5.99991 126.715 20 -1 14 270
1990129N05138 1990 28 WP MM MARIAN 1990-05-13 06:00:00 NR 6.00000 126.000 main 33 0 O_____________ jtwc_wp WP031990 6.00000 126.000 20 -1 14 269
1990129N05138 1990 28 WP MM MARIAN 1990-05-13 09:00:00 NR 5.98486 125.272 main 0 0 P_____________ WP031990 5.98486 125.272 20 -1 15 270
1990129N05138 1990 28 WP MM MARIAN 1990-05-13 12:00:00 NR 6.00000 124.500 main 11 11 O_____________ jtwc_wp WP031990 6.00000 124.500 20 -1 16 272
1990129N05138 1990 28 WP MM MARIAN 1990-05-13 15:00:00 NR 6.05504 123.642 main 64 64 P_____________ WP031990 6.05504 123.642 20 -1 17 277
1990129N05138 1990 28 WP MM MARIAN 1990-05-13 18:00:00 NR 6.20000 122.800 main 102 56 O_____________ jtwc_wp WP031990 6.20000 122.800 20 -1 16 284
1990129N05138 1990 28 WP MM MARIAN 1990-05-13 21:00:00 NR 6.43981 122.077 main 57 49 P_____________ WP031990 6.43981 122.077 20 -1 15 293
1990129N05138 1990 28 WP MM MARIAN 1990-05-14 00:00:00 NR 6.80000 121.400 main 64 64 O_____________ jtwc_wp WP031990 6.80000 121.400 20 -1 17 302
1990129N05138 1990 28 WP MM MARIAN 1990-05-14 03:00:00 NR 7.31509 120.648 main 145 145 P_____________ WP031990 7.31509 120.648 20 -1 14 302
1990129N05138 1990 28 WP MM MARIAN 1990-05-14 06:00:00 TS 7.54000 120.200 1002 tokyo main 192 192 OO____________ jtwc_wp WP031990 7.80000 120.000 20 -1 6.50000 121.000 2 1002 0 0 0 8 299
1990129N05138 1990 28 WP MM MARIAN 1990-05-14 09:00:00 TS 7.72738 119.903 main 230 204 PP____________ WP031990 8.05976 119.605 20 -1 7.06261 120.500 2 1002 0 0 7 301
1990129N05138 1990 28 WP MM MARIAN 1990-05-14 12:00:00 TS 7.90000 119.600 1002 tokyo main 204 166 OO____________ jtwc_wp WP031990 8.20000 119.300 20 -1 7.50000 120.000 2 1002 0 0 0 8 294
1990129N05138 1990 28 WP MM MARIAN 1990-05-14 15:00:00 TS 8.03245 119.207 main 166 117 PP____________ WP031990 8.31496 118.915 20 -1 7.74994 119.500 2 1002 0 0 9 289
1990129N05138 1990 28 WP MM MARIAN 1990-05-14 18:00:00 TS 8.17778 118.778 1002 tokyo main 117 55 OOO___________ jtwc_wp WP031990 8.40000 118.500 20 -1 8.00000 119.000 2 1002 0 0 0 8.00000 119.000 1 23 1002 10 297
1990129N05138 1990 28 WP MM MARIAN 1990-05-14 21:00:00 TS 8.49704 118.305 main 55 10 PPP___________ WP031990 8.47002 118.042 20 -1 8.49994 118.500 2 1002 0 0 8.54530 118.438 1 23 1002 11 307
1990129N05138 1990 28 WP MM MARIAN 1990-05-15 00:00:00 TS 8.85455 117.855 1002 tokyo main 0 0 OOO___________ jtwc_wp WP031990 8.60000 117.600 20 -1 9.00000 118.000 2 1002 0 0 0 9.00000 118.000 1 23 1002 10 309
1990129N05138 1990 28 WP MM MARIAN 1990-05-15 03:00:00 TS 9.14571 117.492 main 15 15 PPP___________ WP031990 8.86242 117.235 22 -1 9.27245 117.492 2 1001 0 0 9.30227 117.750 1 26 1001 9 310
1990129N05138 1990 28 WP MM MARIAN 1990-05-15 06:00:00 TS 9.43846 117.146 1000 tokyo main 70 70 OOOO__________ jtwc_wp WP031990 9.20000 116.900 25 -1 9.50000 117.000 2 1000 0 0 0 9.50000 117.500 1 29 1000 9.90000 117.300 TD 25 1000 10 308
1990129N05138 1990 28 WP MM MARIAN 1990-05-15 09:00:00 TS 9.72925 116.733 main 125 125 PPPP__________ WP031990 9.54242 116.565 27 -1 9.84244 116.535 2 998 0 0 9.62745 117.060 1 29 999 10.0801 116.813 TD 27 1000 10 305
1990129N05138 1990 28 WP MM MARIAN 1990-05-15 12:00:00 TS 10.0333 116.273 40 996 tokyo main 180 180 OOOO__________ jtwc_wp WP031990 9.90000 116.200 30 -1 10.2000 116.100 3 40 996 0 9 50 50 0 9.80000 116.500 1 29 998 10.3000 116.300 TD 30 1000 11 304
1990129N05138 1990 28 WP MM MARIAN 1990-05-15 15:00:00 TS 10.3706 115.770 main 251 251 PPPP__________ WP031990 10.2349 115.780 32 -1 10.5149 115.700 3 42 994 0 9 65 65 10.1476 115.850 1 33 996 10.5850 115.750 TD 32 997 12 304
1990129N05138 1990 28 WP MM MARIAN 1990-05-15 18:00:00 TS 10.7250 115.250 45 992 tokyo main 314 314 OOOO__________ jtwc_wp WP031990 10.6000 115.300 35 0 10.8000 115.300 3 45 992 0 9 80 80 0 10.6000 115.200 2 38 995 10.9000 115.200 TS 35 995 13 305
1990129N05138 1990 28 WP MM MARIAN 1990-05-15 21:00:00 TS 11.0962 114.731 main 393 393 PPPP__________ WP031990 11.0352 114.728 40 0 11.0275 114.857 3 47 988 0 9 90 90 11.1224 114.663 2 38 992 11.1999 114.677 TS 37 992 12 307
1990129N05138 1990 28 WP MM MARIAN 1990-05-16 00:00:00 TS 11.4750 114.250 50 985 tokyo main 455 455 OOOO__________ jtwc_wp WP031990 11.5000 114.200 45 0 11.3000 114.400 4 50 985 0 9 100 100 0 11.6000 114.200 2 38 990 11.5000 114.200 TS 40 990 12 310
1990129N05138 1990 28 WP MM MARIAN 1990-05-16 03:00:00 TS 11.8355 113.832 main 476 436 PPPP__________ WP031990 11.9648 113.855 47 0 11.7200 113.935 4 52 982 0 9 112 112 11.8649 113.770 2 43 987 11.7924 113.770 TS 42 990 11 314
1990129N05138 1990 28 WP MM MARIAN 1990-05-16 06:00:00 TS 12.2000 113.475 55 980 tokyo main 436 401 OOOO__________ jtwc_wp WP031990 12.4000 113.600 50 0 12.2000 113.500 4 55 980 9 50 50 9 125 125 0 12.1000 113.400 3 48 985 12.1000 113.400 TS 45 990 10 317
1990129N05138 1990 28 WP MM MARIAN 1990-05-16 09:00:00 TS 12.5725 113.139 main 390 368 PPPP__________ WP031990 12.7575 113.320 52 0 12.6575 113.105 4 57 977 9 50 50 9 125 125 12.4625 113.070 3 53 982 12.4125 113.062 TS 47 987 10 323
1990129N05138 1990 28 WP MM MARIAN 1990-05-16 12:00:00 TS 12.9750 112.875 60 975 tokyo main 368 348 OOOO__________ jtwc_wp WP031990 13.1000 113.100 55 0 13.1000 112.800 4 60 975 9 50 50 9 125 125 0 12.9000 112.800 3 58 980 12.8000 112.800 STS 50 985 10 333
1990129N05138 1990 28 WP MM MARIAN 1990-05-16 15:00:00 TS 13.4243 112.686 main 351 344 PPPP__________ WP031990 13.4775 112.977 57 0 13.4924 112.605 4 60 975 9 50 50 9 125 125 13.3925 112.548 3 63 977 13.3350 112.613 STS 52 982 10 342
1990129N05138 1990 28 WP MM MARIAN 1990-05-16 18:00:00 TS 13.9000 112.575 60 975 tokyo main 353 346 OOOO__________ jtwc_wp WP031990 13.9000 112.900 60 0 13.9000 112.500 4 60 975 9 50 50 9 125 125 0 13.9000 112.400 4 68 975 13.9000 112.500 STS 55 980 10 350
1990129N05138 1990 28 WP MM MARIAN 1990-05-16 21:00:00 TS 14.3581 112.513 main 349 349 PPPP__________ WP031990 14.3775 112.793 62 0 14.3775 112.420 4 62 972 9 50 50 9 125 125 14.3350 112.420 4 68 975 14.3425 112.420 STS 57 977 10 356
1990129N05138 1990 28 WP MM MARIAN 1990-05-17 00:00:00 TS 14.8500 112.500 65 970 tokyo main 362 359 OOOO__________ jtwc_wp WP031990 14.9000 112.700 65 1 14.9000 112.400 5 65 970 9 50 50 9 125 125 0 14.8000 112.500 4 68 975 14.8000 112.400 STS 60 975 11 359
1990129N05138 1990 28 WP MM MARIAN 1990-05-17 03:00:00 TS 15.4100 112.494 main 373 373 PPPP__________ WP031990 15.4425 112.628 72 1 15.4350 112.427 5 65 970 9 50 50 9 125 125 15.3775 112.493 4 68 975 15.3850 112.427 STS 60 975 12 1
1990129N05138 1990 28 WP MM MARIAN 1990-05-17 06:00:00 TS 16.0000 112.525 65 970 tokyo main 375 331 OOOO__________ jtwc_wp WP031990 16.0000 112.600 80 1 16.0000 112.500 5 65 970 9 50 50 9 125 125 0 16.0000 112.500 4 68 975 16.0000 112.500 STS 60 975 12 4
1990129N05138 1990 28 WP MM MARIAN 1990-05-17 09:00:00 TS 16.5862 112.575 main 331 299 PPPP__________ WP031990 16.5574 112.605 85 2 16.5999 112.563 5 67 967 9 55 55 9 125 125 16.6224 112.563 4 72 970 16.5649 112.570 STS 65 972 12 8
1990129N05138 1990 28 WP MM MARIAN 1990-05-17 12:00:00 TS 17.1500 112.700 70 965 tokyo main 293 283 OOOO__________ jtwc_wp WP031990 17.1000 112.700 90 2 17.2000 112.700 5 70 965 9 60 60 9 125 125 0 17.2000 112.700 4 77 965 17.1000 112.700 T 70 970 11 16
1990129N05138 1990 28 WP MM MARIAN 1990-05-17 15:00:00 TS 17.6743 112.906 main 281 277 PPPP__________ WP031990 17.6073 112.883 90 2 17.7950 112.955 5 70 965 9 60 60 9 125 125 17.6798 112.883 4 77 965 17.6149 112.905 T 70 970 11 27
1990129N05138 1990 28 WP MM MARIAN 1990-05-17 18:00:00 TS 18.1500 113.225 70 965 tokyo main 279 279 OOOO__________ jtwc_wp WP031990 18.1000 113.200 90 2 18.3000 113.300 5 70 965 9 60 60 9 125 125 0 18.1000 113.200 4 77 965 18.1000 113.200 T 70 970 11 38
1990129N05138 1990 28 WP MM MARIAN 1990-05-17 21:00:00 TS 18.5624 113.639 main 295 295 PPPP__________ WP031990 18.6150 113.647 90 2 18.5998 113.656 5 70 965 9 60 60 9 125 125 18.4852 113.713 4 77 965 18.5497 113.540 T 67 972 12 47
1990129N05138 1990 28 WP MM MARIAN 1990-05-18 00:00:00 TS 18.9750 114.150 70 965 tokyo main 342 325 OOOO__________ jtwc_wp WP031990 19.1000 114.200 90 2 18.9000 114.100 5 70 965 9 60 60 9 125 125 0 18.9000 114.300 4 77 965 19.0000 114.000 T 65 975 13 48
1990129N05138 1990 28 WP MM MARIAN 1990-05-18 03:00:00 TS 19.4635 114.693 main 315 284 PPPP__________ WP031990 19.4997 114.763 87 2 19.4199 114.655 5 67 967 9 60 60 9 137 137 19.4344 114.763 4 72 967 19.4999 114.590 T 62 977 15 48
1990129N05138 1990 28 WP MM MARIAN 1990-05-18 06:00:00 TS 19.9750 115.325 65 970 tokyo main 277 256 OOOO__________ jtwc_wp WP031990 19.9000 115.400 85 2 20.0000 115.300 5 65 970 9 60 60 9 150 150 0 20.0000 115.300 4 68 970 20.0000 115.300 STS 60 980 16 52
1990129N05138 1990 28 WP MM MARIAN 1990-05-18 09:00:00 TS 20.4716 116.045 main 246 221 PPPP__________ WP031990 20.3849 116.120 80 1 20.5218 115.941 5 62 972 9 55 55 9 137 137 20.5224 116.040 4 68 972 20.4574 116.078 STS 57 982 17 56
1990129N05138 1990 28 WP MM MARIAN 1990-05-18 12:00:00 TS 20.9500 116.850 60 975 tokyo main 216 206 OOOO__________ jtwc_wp WP031990 20.9000 116.900 75 1 21.0000 116.700 4 60 975 9 50 50 9 125 125 0 21.0000 116.900 4 68 975 20.9000 116.900 STS 55 985 18 60
1990129N05138 1990 28 WP MM MARIAN 1990-05-18 15:00:00 TS 21.3859 117.739 main 208 191 PPPP__________ WP031990 21.3997 117.693 67 1 21.4085 117.715 4 57 977 9 40 40 9 102 102 21.4004 117.830 4 63 977 21.3348 117.716 STS 50 987 19 62
1990129N05138 1990 28 WP MM MARIAN 1990-05-18 18:00:00 TS 21.8250 118.600 55 980 tokyo main 191 115 OOOO__________ jtwc_wp WP031990 21.9000 118.500 60 0 21.8000 118.700 4 55 980 9 30 30 9 80 80 0 21.8000 118.700 3 58 980 21.8000 118.500 TS 45 990 17 58
1990129N05138 1990 28 WP MM MARIAN 1990-05-18 21:00:00 TS 22.2785 119.249 main 115 30 PPPP__________ WP031990 22.4071 119.300 52 0 22.1652 119.273 4 50 985 9 9 77 77 22.2308 119.280 3 48 985 22.3108 119.142 TS 40 992 16 52
1990129N05138 1990 28 WP MM MARIAN 1990-05-19 00:00:00 TS 22.8200 119.953 45 990 tokyo main 20 0 OOOO__________ jtwc_wp WP031990 22.9000 120.100 45 0 22.7000 119.900 3 45 990 0 9 75 75 0 22.8000 119.900 2 38 990 22.9000 119.900 TS 35 995 21 51
1990129N05138 1990 28 WP MM MARIAN 1990-05-19 03:00:00 TS 23.5573 120.982 main 0 0 PPPP__________ WP031990 23.3574 120.923 37 0 23.6526 121.095 3 42 993 0 9 100 100 23.6513 120.925 2 33 992 23.5783 120.991 TS 32 997 24 52
1990129N05138 1990 28 WP MM MARIAN 1990-05-19 06:00:00 TS 24.3000 122.023 40 996 tokyo main 23 23 OOOO__________ jtwc_wp WP031990 23.8000 121.700 30 -1 24.6000 122.300 3 40 996 0 9 125 125 0 24.5000 122.000 1 29 995 24.3000 122.300 TD 30 1000 20 51
1990129N05138 1990 28 WP MM MARIAN 1990-05-19 09:00:00 TS 24.8178 122.709 main 74 74 PPP___________ WP031990 24.2492 122.358 27 -1 25.1529 122.970 3 998 0 9 25.0513 122.797 1 29 997 TD 15 52
1990129N05138 1990 28 WP MM MARIAN 1990-05-19 12:00:00 MX 25.2333 123.333 1000 tokyo main 132 132 OOO___________ jtwc_wp WP031990 24.7000 123.000 25 -1 25.5000 123.500 6 1000 0 0 0 25.5000 123.500 1 29 1000 15 57
1990129N05138 1990 28 WP MM MARIAN 1990-05-19 15:00:00 MX 25.6310 124.099 main 221 221 PPP___________ WP031990 25.1501 123.750 25 -1 25.7429 124.266 6 1001 0 0 26.0000 124.280 1 29 1000 16 59
1990129N05138 1990 28 WP MM MARIAN 1990-05-19 18:00:00 MX 26.0333 124.833 1002 tokyo main 302 302 OOO___________ jtwc_wp WP031990 25.6000 124.500 25 -1 26.0000 125.000 6 1002 0 0 0 26.5000 125.000 1 29 1000 15 53
1990129N05138 1990 28 WP MM MARIAN 1990-05-19 21:00:00 MX 26.5159 125.418 main 379 379 PPP___________ WP031990 26.0571 125.173 22 -1 26.4619 125.538 6 1002 0 0 27.0289 125.543 1 29 1000 14 45
1990129N05138 1990 28 WP MM MARIAN 1990-05-20 00:00:00 MX 27.0455 125.982 1002 tokyo main 456 452 OOO___________ jtwc_wp WP031990 26.5000 125.800 20 -1 27.0000 126.000 6 1002 0 0 0 27.5000 126.100 1 29 1000 15 47
1990129N05138 1990 28 WP MM MARIAN 1990-05-20 03:00:00 MX 27.5048 126.606 main 487 462 PPP___________ WP031990 26.9105 126.404 20 -1 27.4987 126.427 6 1002 0 0 27.8080 126.886 1 29 1000 15 52
1990129N05138 1990 28 WP MM MARIAN 1990-05-20 06:00:00 MX 27.9667 127.311 1002 tokyo main 453 362 OOO___________ jtwc_wp WP031990 27.3000 127.000 20 -1 28.0000 127.000 6 1002 0 0 0 28.1000 127.700 1 29 1000 17 53
1990129N05138 1990 28 WP MM MARIAN 1990-05-20 09:00:00 MX 28.5135 128.134 main 362 271 _PP___________ WP031990 -1 28.5006 127.925 6 1003 0 0 28.5264 128.343 1 26 1001 18 55
1990129N05138 1990 28 WP MM MARIAN 1990-05-20 12:00:00 ET 29.0000 129.000 1004 tokyo main 271 198 _OO___________ -1 29.0000 129.000 6 1004 0 0 0 29.0000 129.000 9 23 1002 18 58
1990129N05138 1990 28 WP MM MARIAN 1990-05-20 15:00:00 ET 29.4562 129.859 main 184 122 _PP___________ -1 29.5006 130.023 6 1004 0 0 29.4340 129.777 9 23 1003 18 59
1990129N05138 1990 28 WP MM MARIAN 1990-05-20 18:00:00 ET 29.9250 130.775 1004 tokyo main 123 102 _OO___________ -1 30.0000 131.000 6 1004 0 0 0 29.9000 130.700 9 23 1004 19 60
1990129N05138 1990 28 WP MM MARIAN 1990-05-20 21:00:00 ET 30.4326 131.796 main 117 111 __P___________ -1 6 0 0 30.4326 131.796 9 23 1004 22 61
1990129N05138 1990 28 WP MM MARIAN 1990-05-21 00:00:00 ET 31.0000 133.000 main 158 __O___________ -1 31.0000 133.000 9 23 1005 24 61

Digital Typhoon Data and Search

About IBTrACS Database

This database is a web-friendly format of International Best Track Archive for Climate Stewardship (IBTrACS), a global best track data archive curated by NOAA dating back to 1842.

Updated: 2021-10-25